createdAt,value
2023-03-01T05:29:42.522Z,0.857143
2023-03-01T05:30:42.584Z,0.857143
2023-03-01T05:31:42.592Z,0.857143
2023-03-01T05:32:42.624Z,1.71429
2023-03-01T05:33:42.654Z,2.5
2023-03-01T05:34:42.685Z,2.5
2023-03-01T05:35:42.790Z,3.35714
2023-03-01T05:36:42.760Z,4.21429
2023-03-01T05:37:42.801Z,5
2023-03-01T05:38:42.846Z,6.71429
2023-03-01T05:39:42.885Z,7.5
2023-03-01T05:40:42.914Z,9.21429
2023-03-01T05:41:42.937Z,10.8571
2023-03-01T05:42:42.961Z,13.3571
2023-03-01T05:43:42.985Z,15
2023-03-01T05:44:43.022Z,17.5
2023-03-01T05:45:43.096Z,20
2023-03-01T05:46:43.112Z,23.3571
2023-03-01T05:47:43.128Z,26.7143
2023-03-01T05:48:43.172Z,30
2023-03-01T05:49:43.193Z,33.3571
2023-03-01T05:50:43.229Z,37.5
2023-03-01T05:51:43.254Z,41.7143
2023-03-01T05:52:43.325Z,46.7143
2023-03-01T05:53:43.341Z,50.8571
2023-03-01T05:54:43.365Z,55.8571
2023-03-01T05:55:43.406Z,60.8571
2023-03-01T05:56:43.428Z,66.7143
2023-03-01T05:57:43.475Z,73.3571
2023-03-01T05:58:43.532Z,79.2143
2023-03-01T05:59:43.530Z,86.7143
2023-03-01T06:00:43.566Z,94.2143
2023-03-01T06:01:43.602Z,102.5
2023-03-01T06:02:43.645Z,111.714
2023-03-01T06:03:43.683Z,120
2023-03-01T06:04:43.847Z,129.214
2023-03-01T06:05:43.789Z,138.357
2023-03-01T06:06:43.800Z,146.714
2023-03-01T06:07:43.804Z,155.857
2023-03-01T06:08:43.837Z,165
2023-03-01T06:09:43.870Z,174.214
2023-03-01T06:10:43.901Z,184.214
2023-03-01T06:11:43.941Z,197.5
2023-03-01T06:12:43.963Z,208.357
2023-03-01T06:13:44.007Z,223.357
2023-03-01T06:14:44.029Z,233.357
2023-03-01T06:15:44.093Z,243.357
2023-03-01T06:16:44.112Z,255
2023-03-01T06:17:44.151Z,269.214
2023-03-01T06:18:44.184Z,283.357
2023-03-01T06:19:44.209Z,299.214
2023-03-01T06:20:44.233Z,314.214
2023-03-01T06:21:44.276Z,328.357
2023-03-01T06:22:44.382Z,343.357
2023-03-01T06:23:44.340Z,364.214
2023-03-01T06:24:44.371Z,382.5
2023-03-01T06:25:44.397Z,400
2023-03-01T06:26:44.434Z,422.5
2023-03-01T06:27:44.485Z,450
2023-03-01T06:28:44.519Z,480
2023-03-01T06:29:44.525Z,495.857
2023-03-01T06:30:44.559Z,510
2023-03-01T06:31:44.596Z,533.357
2023-03-01T06:32:44.634Z,555.857
2023-03-01T06:33:44.680Z,584.214
2023-03-01T06:34:44.699Z,604.214
2023-03-01T06:35:44.816Z,610.857
2023-03-01T06:36:44.789Z,620
2023-03-01T06:37:44.797Z,628.357
2023-03-01T06:38:44.837Z,642.5
2023-03-01T06:39:44.874Z,657.5
2023-03-01T06:40:44.907Z,666.714
2023-03-01T06:41:44.955Z,678.357
2023-03-01T06:42:45.134Z,693.357
2023-03-01T06:43:45.022Z,703.357
2023-03-01T06:44:45.052Z,715.857
2023-03-01T06:45:45.081Z,727.5
2023-03-01T06:46:45.203Z,728.357
2023-03-01T06:47:45.170Z,720.857
2023-03-01T06:48:45.206Z,726.714
2023-03-01T06:49:45.232Z,740
2023-03-01T06:50:45.290Z,754.214
2023-03-01T06:51:45.303Z,768.357
2023-03-01T06:52:45.336Z,794.214
2023-03-01T06:53:45.400Z,818.357
2023-03-01T06:54:45.401Z,841.714
2023-03-01T06:55:45.427Z,876.714
2023-03-01T06:56:45.466Z,946.714
2023-03-01T06:57:45.500Z,992.5
2023-03-01T06:58:45.549Z,1015
2023-03-01T06:59:45.568Z,1064.21
2023-03-01T07:00:45.619Z,1068.36
2023-03-01T07:01:45.677Z,1098.36
2023-03-01T07:02:45.758Z,1112.5
2023-03-01T07:03:45.733Z,1208.36
2023-03-01T07:04:45.734Z,1335.86
2023-03-01T07:05:45.785Z,1320
2023-03-01T07:06:45.806Z,1409.21
2023-03-01T07:07:45.841Z,1399.21
2023-03-01T07:08:45.871Z,1319.21
2023-03-01T07:09:45.930Z,1140.86
2023-03-01T07:10:45.977Z,1013.36
2023-03-01T07:11:45.992Z,1035
2023-03-01T07:12:46.025Z,1360.86
2023-03-01T07:13:46.059Z,1858.36
2023-03-01T07:14:46.101Z,2160
2023-03-01T07:15:46.154Z,2289.21
2023-03-01T07:16:46.173Z,2337.5
2023-03-01T07:17:46.203Z,2503.36
2023-03-01T07:18:46.239Z,2616.71
2023-03-01T07:19:46.268Z,2272.5
2023-03-01T07:20:46.310Z,1484.21
2023-03-01T07:21:46.328Z,1595
2023-03-01T07:22:46.528Z,2521.71
2023-03-01T07:23:46.405Z,2903.36
2023-03-01T07:24:46.438Z,2700
2023-03-01T07:25:46.474Z,2190
2023-03-01T07:26:46.502Z,2190.86
2023-03-01T07:27:46.559Z,2152.5
2023-03-01T07:28:46.605Z,2028.36
2023-03-01T07:29:46.594Z,1979.21
2023-03-01T07:30:46.629Z,1749.21
2023-03-01T07:31:46.667Z,1762.5
2023-03-01T07:32:46.907Z,2033.36
2023-03-01T07:33:46.755Z,2080.86
2023-03-01T07:34:46.773Z,1726.71
2023-03-01T07:35:46.862Z,2163.36
2023-03-01T07:36:46.851Z,2588.36
2023-03-01T07:37:46.880Z,2545.86
2023-03-01T07:38:46.905Z,1756.71
2023-03-01T07:39:46.935Z,926.714
2023-03-01T07:40:46.983Z,1136.71
2023-03-01T07:41:47.015Z,1595
2023-03-01T07:42:47.050Z,1665.86
2023-03-01T07:43:47.090Z,1365
2023-03-01T07:44:47.124Z,1944.21
2023-03-01T07:45:47.197Z,2088.36
2023-03-01T07:46:47.210Z,1600.86
2023-03-01T07:47:47.225Z,1752.5
2023-03-01T07:48:47.270Z,1904.21
2023-03-01T07:49:47.298Z,1985.86
2023-03-01T07:50:47.319Z,2355
2023-03-01T07:51:47.374Z,2423.36
2023-03-01T07:52:47.404Z,2397.5
2023-03-01T07:53:47.425Z,2331.71
2023-03-01T07:54:47.462Z,2209.21
2023-03-01T07:55:47.494Z,2103.36
2023-03-01T07:56:47.559Z,1509.21
2023-03-01T07:57:47.568Z,1363.36
2023-03-01T07:58:49.807Z,1535
2023-03-01T07:59:47.635Z,1645.86
2023-03-01T08:00:47.679Z,1546.71
2023-03-01T08:01:47.775Z,1233.36
2023-03-01T08:02:47.762Z,929.214
2023-03-01T08:03:47.814Z,845.857
2023-03-01T08:04:47.799Z,848.357
2023-03-01T08:05:47.834Z,862.5
2023-03-01T08:06:47.869Z,1057.5
2023-03-01T08:07:47.921Z,1284.21
2023-03-01T08:08:47.947Z,1202.5
2023-03-01T08:09:47.970Z,1180
2023-03-01T08:10:47.998Z,1039.21
2023-03-01T08:11:48.078Z,969.214
2023-03-01T08:12:48.067Z,985
2023-03-01T08:13:50.416Z,1020.86
2023-03-01T08:14:48.145Z,1023.36
2023-03-01T08:15:48.167Z,1059.21
2023-03-01T08:16:48.266Z,1043.36
2023-03-01T08:17:48.240Z,1002.5
2023-03-01T08:18:48.270Z,1023.36
2023-03-01T08:19:48.333Z,1039.21
2023-03-01T08:20:48.369Z,1066.71
2023-03-01T08:21:48.373Z,1088.36
2023-03-01T08:22:48.406Z,1135
2023-03-01T08:23:48.489Z,1097.5
2023-03-01T08:24:48.474Z,999.214
2023-03-01T08:25:48.521Z,997.5
2023-03-01T08:26:48.557Z,995
2023-03-01T08:27:48.590Z,980.857
2023-03-01T08:28:48.647Z,956.714
2023-03-01T08:29:48.666Z,930.857
2023-03-01T08:30:48.707Z,919.214
2023-03-01T08:31:48.841Z,923.357
2023-03-01T08:32:48.892Z,930
2023-03-01T08:33:48.817Z,939.214
2023-03-01T08:34:48.835Z,972.5
2023-03-01T08:35:49.021Z,994.214
2023-03-01T08:36:48.936Z,963.357
2023-03-01T08:37:48.943Z,981.714
2023-03-01T08:38:48.983Z,1075
2023-03-01T08:39:49.072Z,1240
2023-03-01T08:40:49.049Z,1176.71
2023-03-01T08:41:49.098Z,1197.5
2023-03-01T08:42:49.134Z,1088.36
2023-03-01T08:43:49.154Z,1085.86
2023-03-01T08:44:49.181Z,1104.21
2023-03-01T08:45:49.273Z,1042.5
2023-03-01T08:46:49.231Z,1043.36
2023-03-01T08:47:49.268Z,1140.86
2023-03-01T08:48:49.314Z,1179.21
2023-03-01T08:49:49.327Z,1115.86
2023-03-01T08:50:49.360Z,1196.71
2023-03-01T08:51:49.398Z,1386.71
2023-03-01T08:52:49.426Z,1320.86
2023-03-01T08:53:49.498Z,1291.71
2023-03-01T08:54:49.503Z,1593.36
2023-03-01T08:55:50.693Z,2045
2023-03-01T08:56:49.560Z,2099.21
2023-03-01T08:57:49.604Z,1993.36
2023-03-01T08:58:49.651Z,1837.5
2023-03-01T08:59:49.665Z,1490
2023-03-01T09:00:49.703Z,1366.71
2023-03-01T09:01:49.781Z,1860
2023-03-01T09:02:49.775Z,1883.36
2023-03-01T09:03:49.869Z,1231.71
2023-03-01T09:04:49.839Z,855.857
2023-03-01T09:05:50.070Z,845
2023-03-01T09:06:49.907Z,845.857
2023-03-01T09:07:50.042Z,840.857
2023-03-01T09:08:49.978Z,847.5
2023-03-01T09:09:49.998Z,1358.36
2023-03-01T09:10:50.054Z,1815
2023-03-01T09:11:50.067Z,1873.36
2023-03-01T09:12:50.103Z,2266.71
2023-03-01T09:13:50.139Z,2672.5
2023-03-01T09:14:50.165Z,2520.86
2023-03-01T09:15:50.192Z,2365
2023-03-01T09:16:50.296Z,1745.86
2023-03-01T09:17:50.256Z,1617.5
2023-03-01T09:18:50.296Z,1195.86
2023-03-01T09:19:50.329Z,836.714
2023-03-01T09:20:50.360Z,838.357
2023-03-01T09:21:50.407Z,840
2023-03-01T09:22:50.493Z,840.857
2023-03-01T09:23:50.470Z,840
2023-03-01T09:24:50.514Z,840
2023-03-01T09:25:50.540Z,840
2023-03-01T09:26:51.657Z,838.357
2023-03-01T09:27:50.624Z,834.214
2023-03-01T09:28:50.655Z,833.357
2023-03-01T09:29:50.668Z,834.214
2023-03-01T09:30:50.720Z,830.857
2023-03-01T09:31:50.781Z,830
2023-03-01T09:32:50.781Z,829.214
2023-03-01T09:33:50.840Z,825.857
2023-03-01T09:34:50.837Z,827.5
2023-03-01T09:35:50.969Z,829.214
2023-03-01T09:36:50.912Z,830
2023-03-01T09:37:50.942Z,831.714
2023-03-01T09:38:50.971Z,830.857
2023-03-01T09:39:51.024Z,828.357
2023-03-01T09:40:51.111Z,827.5
2023-03-01T09:41:51.091Z,825
2023-03-01T09:42:51.177Z,825
2023-03-01T09:43:51.187Z,825.857
2023-03-01T09:44:51.199Z,825.857
2023-03-01T09:45:51.276Z,826.714
2023-03-01T09:46:51.257Z,828.357
2023-03-01T09:47:51.313Z,832.5
2023-03-01T09:48:51.381Z,835
2023-03-01T09:49:51.372Z,835
2023-03-01T09:50:51.405Z,837.5
2023-03-01T09:51:51.438Z,840.857
2023-03-01T09:52:51.475Z,845
2023-03-01T09:53:51.544Z,848.357
2023-03-01T09:54:51.552Z,850.857
2023-03-01T09:55:51.576Z,854.214
2023-03-01T09:56:51.616Z,855.857
2023-03-01T09:57:51.674Z,858.357
2023-03-01T09:58:51.713Z,862.5
2023-03-01T09:59:51.753Z,868.357
2023-03-01T10:00:51.752Z,879.214
2023-03-01T10:01:51.786Z,892.5
2023-03-01T10:02:51.833Z,911.714
2023-03-01T10:03:51.945Z,935
2023-03-01T10:04:51.948Z,970
2023-03-01T10:05:51.955Z,1001.71
2023-03-01T10:06:51.947Z,1038.36
2023-03-01T10:07:51.985Z,1074.21
2023-03-01T10:08:52.007Z,1098.36
2023-03-01T10:09:52.044Z,1122.5
2023-03-01T10:10:52.079Z,1149.21
2023-03-01T10:11:52.127Z,1154.21
2023-03-01T10:12:52.154Z,1136.71
2023-03-01T10:13:52.154Z,1142.5
2023-03-01T10:14:52.209Z,1154.21
2023-03-01T10:15:52.249Z,1157.5
2023-03-01T10:16:52.311Z,1169.21
2023-03-01T10:17:52.318Z,1164.21
2023-03-01T10:18:52.333Z,1138.36
2023-03-01T10:19:52.366Z,1109.21
2023-03-01T10:20:52.406Z,1079.21
2023-03-01T10:21:52.466Z,1071.71
2023-03-01T10:22:52.493Z,1066.71
2023-03-01T10:23:52.531Z,1045
2023-03-01T10:24:52.540Z,998.357
2023-03-01T10:25:52.585Z,987.5
2023-03-01T10:26:52.603Z,963.357
2023-03-01T10:27:52.660Z,920
2023-03-01T10:28:52.700Z,885
2023-03-01T10:29:52.738Z,877.5
2023-03-01T10:30:52.957Z,872.5
2023-03-01T10:31:52.841Z,864.214
2023-03-01T10:32:52.836Z,854.214
2023-03-01T10:33:52.842Z,848.357
2023-03-01T10:34:52.880Z,838.357
2023-03-01T10:35:52.965Z,825
2023-03-01T10:36:52.953Z,815.857
2023-03-01T10:37:52.990Z,818.357
2023-03-01T10:38:53.031Z,830.857
2023-03-01T10:39:53.065Z,826.714
2023-03-01T10:40:53.122Z,824.214
2023-03-01T10:41:53.127Z,820.857
2023-03-01T10:42:53.172Z,818.357
2023-03-01T10:43:53.195Z,816.714
2023-03-01T10:44:53.239Z,815
2023-03-01T10:45:53.325Z,815
2023-03-01T10:46:53.323Z,817.5
2023-03-01T10:47:53.325Z,815.857
2023-03-01T10:48:53.374Z,814.214
2023-03-01T10:49:53.402Z,812.5
2023-03-01T10:50:53.444Z,812.5
2023-03-01T10:51:53.501Z,810
2023-03-01T10:52:53.532Z,805
2023-03-01T10:53:53.535Z,800
2023-03-01T10:54:53.579Z,796.714
2023-03-01T10:55:53.607Z,794.214
2023-03-01T10:56:53.658Z,792.5
2023-03-01T10:57:53.695Z,792.5
2023-03-01T10:58:53.733Z,792.5
2023-03-01T10:59:53.792Z,791.714
2023-03-01T11:00:53.799Z,791.714
2023-03-01T11:01:53.893Z,791.714
2023-03-01T11:02:53.848Z,792.5
2023-03-01T11:03:53.877Z,795.857
2023-03-01T11:04:53.938Z,798.357
2023-03-01T11:05:53.958Z,804.214
2023-03-01T11:06:53.984Z,810
2023-03-01T11:07:54.011Z,813.357
2023-03-01T11:08:54.042Z,811.714
2023-03-01T11:09:54.080Z,810
2023-03-01T11:10:54.122Z,810.857
2023-03-01T11:11:54.155Z,812.5
2023-03-01T11:12:54.233Z,820.857
2023-03-01T11:13:54.226Z,830
2023-03-01T11:14:54.246Z,845.857
2023-03-01T11:15:54.346Z,850.857
2023-03-01T11:16:54.315Z,836.714
2023-03-01T11:18:00.676Z,816.714
2023-03-01T11:18:54.404Z,795.857
2023-03-01T11:20:02.339Z,787.5
2023-03-01T11:20:54.460Z,784.214
2023-03-01T11:21:54.525Z,785
2023-03-01T11:22:54.526Z,793.357
2023-03-01T11:23:54.592Z,797.5
2023-03-01T11:25:07.411Z,796.714
2023-03-01T11:25:54.630Z,795
2023-03-01T11:26:54.673Z,795.857
2023-03-01T11:27:54.715Z,801.714
2023-03-01T11:28:54.764Z,806.714
2023-03-01T11:29:54.772Z,810
2023-03-01T11:31:07.290Z,827.5
2023-03-01T11:31:57.793Z,836.714
2023-03-01T11:32:55.028Z,855
2023-03-01T11:33:54.953Z,867.5
2023-03-01T11:34:54.955Z,885.857
2023-03-01T11:35:55.036Z,885
2023-03-01T11:36:55.045Z,890.857
2023-03-01T11:37:55.082Z,895.857
2023-03-01T11:38:55.106Z,898.357
2023-03-01T11:39:55.109Z,927.5
2023-03-01T11:40:56.211Z,953.357
2023-03-01T11:41:55.189Z,965.857
2023-03-01T11:42:55.242Z,978.357
2023-03-01T11:43:55.250Z,987.5
2023-03-01T11:44:55.278Z,994.214
2023-03-01T11:45:55.308Z,998.357
2023-03-01T11:46:55.502Z,998.357
2023-03-01T11:47:55.378Z,995
2023-03-01T11:48:55.406Z,990.857
2023-03-01T11:49:55.443Z,984.214
2023-03-01T11:50:55.482Z,969.214
2023-03-01T11:51:55.585Z,950
2023-03-01T11:52:55.532Z,927.5
2023-03-01T11:53:55.566Z,906.714
2023-03-01T11:54:55.628Z,887.5
2023-03-01T11:55:55.681Z,866.714
2023-03-01T11:56:55.710Z,849.214
2023-03-01T11:57:55.700Z,837.5
2023-03-01T11:58:55.740Z,825
2023-03-01T11:59:55.765Z,807.5
2023-03-01T12:00:55.800Z,791.714
2023-03-01T12:01:55.856Z,771.714
2023-03-01T12:02:55.865Z,745
2023-03-01T12:03:55.938Z,730.857
2023-03-01T12:04:55.937Z,720.857
2023-03-01T12:05:55.979Z,720
2023-03-01T12:06:57.537Z,721.714
2023-03-01T12:07:56.048Z,727.5
2023-03-01T12:08:56.085Z,729.214
2023-03-01T12:09:56.131Z,730
2023-03-01T12:10:56.155Z,723.357
2023-03-01T12:11:56.189Z,727.5
2023-03-01T12:12:56.224Z,724.214
2023-03-01T12:13:56.262Z,725.857
2023-03-01T12:14:56.312Z,725
2023-03-01T12:15:56.347Z,725.857
2023-03-01T12:16:56.442Z,726.714
2023-03-01T12:17:56.424Z,731.714
2023-03-01T12:18:56.435Z,736.714
2023-03-01T12:19:56.475Z,741.714
2023-03-01T12:20:56.502Z,748.357
2023-03-01T12:21:56.546Z,754.214
2023-03-01T12:22:56.613Z,759.214
2023-03-01T12:23:56.607Z,755
2023-03-01T12:24:56.664Z,744.214
2023-03-01T12:25:56.676Z,742.5
2023-03-01T12:26:56.719Z,736.714
2023-03-01T12:27:56.775Z,735.857
2023-03-01T12:28:56.794Z,737.5
2023-03-01T12:29:56.810Z,743.357
2023-03-01T12:30:56.867Z,755
2023-03-01T12:31:57.011Z,774.214
2023-03-01T12:32:56.987Z,801.714
2023-03-01T12:33:57.013Z,830.857
2023-03-01T12:34:56.986Z,855
2023-03-01T12:35:57.059Z,858.357
2023-03-01T12:36:57.050Z,850
2023-03-01T12:37:57.099Z,839.214
2023-03-01T12:38:57.167Z,828.357
2023-03-01T12:39:57.176Z,805
2023-03-01T12:40:57.207Z,765
2023-03-01T12:41:57.250Z,740.857
2023-03-01T12:42:57.279Z,728.357
2023-03-01T12:43:57.310Z,716.714
2023-03-01T12:44:57.344Z,707.5
2023-03-01T12:45:57.404Z,695.857
2023-03-01T12:46:57.437Z,689.214
2023-03-01T12:47:57.446Z,688.357
2023-03-01T12:48:57.494Z,687.5
2023-03-01T12:49:57.526Z,687.5
2023-03-01T12:50:57.548Z,690
2023-03-01T12:51:58.395Z,694.214
2023-03-01T12:52:57.707Z,695
2023-03-01T12:53:57.650Z,698.357
2023-03-01T12:54:57.678Z,700
2023-03-01T12:55:57.724Z,699.214
2023-03-01T12:56:57.740Z,697.5
2023-03-01T12:57:57.791Z,691.714
2023-03-01T12:58:58.896Z,683.357
2023-03-01T12:59:57.834Z,669.214
2023-03-01T13:00:57.910Z,650
2023-03-01T13:01:57.909Z,624.214
2023-03-01T13:02:57.959Z,621.714
2023-03-01T13:03:57.994Z,642.5
2023-03-01T13:04:58.011Z,655
2023-03-01T13:05:58.071Z,642.5
2023-03-01T13:06:58.098Z,633.357
2023-03-01T13:07:58.114Z,647.5
2023-03-01T13:08:58.175Z,664.214
2023-03-01T13:09:58.188Z,664.214
2023-03-01T13:10:58.225Z,665.857
2023-03-01T13:11:58.256Z,660
2023-03-01T13:12:58.304Z,654.214
2023-03-01T13:13:58.360Z,646.714
2023-03-01T13:14:58.381Z,643.357
2023-03-01T13:15:58.420Z,647.5
2023-03-01T13:16:58.505Z,649.214
2023-03-01T13:17:58.483Z,650.857
2023-03-01T13:18:58.530Z,645.857
2023-03-01T13:19:58.541Z,646.714
2023-03-01T13:20:58.636Z,640.857
2023-03-01T13:21:58.604Z,640
2023-03-01T13:22:58.633Z,644.214
2023-03-01T13:23:58.658Z,635
2023-03-01T13:24:58.714Z,632.5
2023-03-01T13:25:58.732Z,625.857
2023-03-01T13:26:58.788Z,614.214
2023-03-01T13:27:58.803Z,605.857
2023-03-01T13:28:58.866Z,601.714
2023-03-01T13:29:58.893Z,586.714
2023-03-01T13:30:58.926Z,597.5
2023-03-01T13:31:59.064Z,597.5
2023-03-01T13:32:59.144Z,600
2023-03-01T13:33:59.039Z,606.714
2023-03-01T13:34:59.059Z,599.214
2023-03-01T13:35:59.159Z,599.214
2023-03-01T13:36:59.127Z,595.857
2023-03-01T13:37:59.153Z,595.857
2023-03-01T13:38:59.314Z,590.857
2023-03-01T13:40:00.260Z,585
2023-03-01T13:40:59.267Z,581.714
2023-03-01T13:41:59.297Z,577.5
2023-03-01T13:43:05.656Z,583.357
2023-03-01T13:43:59.368Z,572.5
2023-03-01T13:44:59.433Z,573.357
2023-03-01T13:45:59.554Z,574.214
2023-03-01T13:46:59.510Z,576.714
2023-03-01T13:47:59.513Z,576.714
2023-03-01T13:48:59.544Z,571.714
2023-03-01T13:49:59.580Z,564.214
2023-03-01T13:50:59.687Z,555.857
2023-03-01T13:51:59.668Z,557.5
2023-03-01T13:52:59.693Z,556.714
2023-03-01T13:53:59.818Z,560.857
2023-03-01T13:54:59.771Z,555.857
2023-03-01T13:56:00.053Z,551.714
2023-03-01T13:56:59.883Z,556.714
2023-03-01T13:57:59.870Z,556.714
2023-03-01T13:58:59.913Z,565
2023-03-01T13:59:59.951Z,567.5
2023-03-01T14:01:00.035Z,567.5
2023-03-01T14:02:00.137Z,565.857
2023-03-01T14:03:05.717Z,563.357
2023-03-01T14:04:00.371Z,556.714
2023-03-01T14:05:00.151Z,557.5
2023-03-01T14:06:12.795Z,561.714
2023-03-01T14:07:00.180Z,561.714
2023-03-01T14:08:00.228Z,546.714
2023-03-01T14:09:00.264Z,553.357
2023-03-01T14:10:00.268Z,554.214
2023-03-01T14:11:00.308Z,561.714
2023-03-01T14:12:00.364Z,559.214
2023-03-01T14:13:11.300Z,565.857
2023-03-01T14:14:00.436Z,570.857
2023-03-01T14:15:00.456Z,575.857
2023-03-01T14:16:00.633Z,577.5
2023-03-01T14:17:00.521Z,573.357
2023-03-01T14:18:00.566Z,576.714
2023-03-01T14:19:00.598Z,574.214
2023-03-01T14:20:00.653Z,574.214
2023-03-01T14:21:00.670Z,573.357
2023-03-01T14:22:00.705Z,569.214
2023-03-01T14:23:00.737Z,570
2023-03-01T14:24:00.775Z,574.214
2023-03-01T14:25:00.803Z,575
2023-03-01T14:26:00.848Z,575
2023-03-01T14:27:00.905Z,573.357
2023-03-01T14:28:00.911Z,572.5
2023-03-01T14:29:00.954Z,570.857
2023-03-01T14:30:00.978Z,570
2023-03-01T14:31:01.154Z,569.214
2023-03-01T14:32:01.147Z,562.5
2023-03-01T14:33:01.126Z,558.357
2023-03-01T14:34:01.132Z,553.357
2023-03-01T14:35:01.191Z,545
2023-03-01T14:36:01.300Z,550
2023-03-01T14:37:01.239Z,555
2023-03-01T14:38:01.305Z,560
2023-03-01T14:39:01.325Z,558.357
2023-03-01T14:40:01.345Z,554.214
2023-03-01T14:41:01.374Z,553.357
2023-03-01T14:42:10.639Z,549.214
2023-03-01T14:43:01.439Z,551.714
2023-03-01T14:44:01.513Z,550
2023-03-01T14:45:01.508Z,550
2023-03-01T14:46:01.571Z,551.714
2023-03-01T14:47:01.593Z,550
2023-03-01T14:48:01.615Z,548.357
2023-03-01T14:49:01.660Z,546.714
2023-03-01T14:50:01.787Z,544.214
2023-03-01T14:51:01.728Z,542.5
2023-03-01T14:52:01.735Z,541.714
2023-03-01T14:53:01.758Z,540.857
2023-03-01T14:54:01.811Z,539.214
2023-03-01T14:55:01.855Z,538.357
2023-03-01T14:56:01.899Z,536.714
2023-03-01T14:57:01.922Z,535.857
2023-03-01T14:58:03.478Z,534.214
2023-03-01T14:59:01.977Z,533.357
2023-03-01T15:00:02.084Z,530.857
2023-03-01T15:01:02.080Z,529.214
2023-03-01T15:02:02.109Z,527.5
2023-03-01T15:03:02.242Z,525.857
2023-03-01T15:04:02.194Z,523.357
2023-03-01T15:05:02.182Z,521.714
2023-03-01T15:06:02.217Z,520.857
2023-03-01T15:07:02.254Z,518.357
2023-03-01T15:08:02.295Z,516.714
2023-03-01T15:09:02.349Z,515
2023-03-01T15:10:02.359Z,513.357
2023-03-01T15:11:02.393Z,511.714
2023-03-01T15:12:02.437Z,510
2023-03-01T15:13:02.465Z,508.357
2023-03-01T15:14:02.532Z,505.857
2023-03-01T15:15:04.697Z,504.214
2023-03-01T15:16:02.609Z,502.5
2023-03-01T15:17:02.610Z,500
2023-03-01T15:18:02.650Z,498.357
2023-03-01T15:19:02.746Z,496.714
2023-03-01T15:20:02.736Z,494.214
2023-03-01T15:21:02.796Z,492.5
2023-03-01T15:22:02.769Z,490
2023-03-01T15:23:02.805Z,487.5
2023-03-01T15:24:02.834Z,484.214
2023-03-01T15:25:02.870Z,480.857
2023-03-01T15:26:02.909Z,478.357
2023-03-01T15:27:03.086Z,475
2023-03-01T15:28:02.989Z,472.5
2023-03-01T15:29:03.019Z,470
2023-03-01T15:30:03.195Z,466.714
2023-03-01T15:31:03.166Z,463.357
2023-03-01T15:32:03.155Z,460
2023-03-01T15:33:03.196Z,457.5
2023-03-01T15:34:03.225Z,454.214
2023-03-01T15:35:03.234Z,450.857
2023-03-01T15:36:03.322Z,447.5
2023-03-01T15:37:03.310Z,445
2023-03-01T15:38:03.356Z,441.714
2023-03-01T15:39:03.404Z,439.214
2023-03-01T15:40:03.526Z,435.857
2023-03-01T15:41:03.466Z,432.5
2023-03-01T15:42:03.490Z,428.357
2023-03-01T15:43:03.525Z,425
2023-03-01T15:44:03.588Z,421.714
2023-03-01T15:45:03.599Z,417.5
2023-03-01T15:46:03.702Z,414.214
2023-03-01T15:47:03.663Z,410
2023-03-01T15:48:03.691Z,405.857
2023-03-01T15:49:03.774Z,401.714
2023-03-01T15:50:03.938Z,397.5
2023-03-01T15:51:03.797Z,393.357
2023-03-01T15:52:03.845Z,388.357
2023-03-01T15:53:03.861Z,384.214
2023-03-01T15:54:03.904Z,380
2023-03-01T15:55:04.141Z,375
2023-03-01T15:56:04.002Z,369.214
2023-03-01T15:57:04.008Z,364.214
2023-03-01T15:58:04.046Z,359.214
2023-03-01T15:59:04.090Z,354.214
2023-03-01T16:00:04.119Z,349.214
2023-03-01T16:01:04.632Z,343.357
2023-03-01T16:02:04.217Z,338.357
2023-03-01T16:03:04.262Z,332.5
2023-03-01T16:04:04.373Z,327.5
2023-03-01T16:05:04.309Z,321.714
2023-03-01T16:06:04.338Z,315.857
2023-03-01T16:07:04.396Z,310
2023-03-01T16:08:04.405Z,304.214
2023-03-01T16:09:04.445Z,296.714
2023-03-01T16:10:04.468Z,291.714
2023-03-01T16:11:04.505Z,285
2023-03-01T16:12:04.556Z,278.357
2023-03-01T16:13:04.625Z,271.714
2023-03-01T16:14:04.684Z,265
2023-03-01T16:15:04.634Z,258.357
2023-03-01T16:16:04.689Z,252.5
2023-03-01T16:17:04.709Z,245
2023-03-01T16:18:04.765Z,237.5
2023-03-01T16:19:04.800Z,230
2023-03-01T16:20:04.795Z,222.5
2023-03-01T16:21:04.830Z,215
2023-03-01T16:22:04.866Z,207.5
2023-03-01T16:23:04.899Z,200
2023-03-01T16:24:04.951Z,192.5
2023-03-01T16:25:04.981Z,185
2023-03-01T16:26:05.021Z,177.5
2023-03-01T16:27:05.048Z,170
2023-03-01T16:28:05.112Z,162.5
2023-03-01T16:29:05.115Z,155
2023-03-01T16:30:05.152Z,147.5
2023-03-01T16:31:05.208Z,140.857
2023-03-01T16:32:05.387Z,133.357
2023-03-01T16:33:10.278Z,126.714
2023-03-01T16:34:05.272Z,119.214
2023-03-01T16:35:05.317Z,112.5
2023-03-01T16:36:05.411Z,106.714
2023-03-01T16:37:05.393Z,99.2143
2023-03-01T16:38:05.403Z,92.5
2023-03-01T16:39:05.438Z,85.8571
2023-03-01T16:40:05.476Z,80
2023-03-01T16:41:05.535Z,74.2143
2023-03-01T16:42:05.553Z,68.3571
2023-03-01T16:43:05.576Z,62.5
2023-03-01T16:44:05.623Z,57.5
2023-03-01T16:45:13.962Z,53.3571
2023-03-01T16:46:05.761Z,47.5
2023-03-01T16:47:05.720Z,42.5
2023-03-01T16:48:05.738Z,38.3571
2023-03-01T16:49:05.806Z,34.2143
2023-03-01T16:50:05.817Z,30.8571
2023-03-01T16:51:05.853Z,26.7143
2023-03-01T16:52:05.893Z,24.2143
2023-03-01T16:53:05.941Z,20.8571
2023-03-01T16:54:05.962Z,18.3571
2023-03-01T16:55:05.984Z,15.8571
2023-03-01T16:56:06.028Z,13.3571
2023-03-01T16:57:06.096Z,11.7143
2023-03-01T16:58:06.092Z,10
2023-03-01T16:59:06.640Z,8.35714
2023-03-01T17:00:06.158Z,6.71429
2023-03-01T17:01:06.228Z,5.85714
2023-03-01T17:02:06.243Z,5
2023-03-01T17:03:06.300Z,4.21429
2023-03-01T17:04:06.301Z,3.35714
2023-03-01T17:05:06.312Z,2.5
2023-03-01T17:06:06.364Z,1.71429
2023-03-01T17:07:06.406Z,1.71429
2023-03-01T17:08:06.446Z,0.857143
2023-03-01T17:09:06.480Z,0.857143
